sensor_id;sensor_type;location;lat;lon;timestamp;temperature;humidity
14188;DHT22;7175;51.978;5.330;2023-08-07T00:00:27;14.70;99.90
14188;DHT22;7175;51.978;5.330;2023-08-07T00:02:55;14.70;99.90
14188;DHT22;7175;51.978;5.330;2023-08-07T00:05:23;14.70;99.90
14188;DHT22;7175;51.978;5.330;2023-08-07T00:07:52;14.70;99.90
14188;DHT22;7175;51.978;5.330;2023-08-07T00:10:21;14.70;99.90
14188;DHT22;7175;51.978;5.330;2023-08-07T00:12:49;14.70;99.90
14188;DHT22;7175;51.978;5.330;2023-08-07T00:15:17;14.70;99.90
14188;DHT22;7175;51.978;5.330;2023-08-07T00:17:45;14.70;99.90
14188;DHT22;7175;51.978;5.330;2023-08-07T00:20:13;14.70;99.90
14188;DHT22;7175;51.978;5.330;2023-08-07T00:22:41;14.80;99.90
14188;DHT22;7175;51.978;5.330;2023-08-07T00:25:09;14.70;99.90
14188;DHT22;7175;51.978;5.330;2023-08-07T00:27:39;14.80;99.90
14188;DHT22;7175;51.978;5.330;2023-08-07T00:30:08;14.80;99.90
14188;DHT22;7175;51.978;5.330;2023-08-07T00:32:36;14.80;99.90
14188;DHT22;7175;51.978;5.330;2023-08-07T00:35:05;14.70;99.90
14188;DHT22;7175;51.978;5.330;2023-08-07T00:37:34;14.70;99.90
14188;DHT22;7175;51.978;5.330;2023-08-07T00:40:03;14.70;99.90
14188;DHT22;7175;51.978;5.330;2023-08-07T00:42:31;14.70;99.90
14188;DHT22;7175;51.978;5.330;2023-08-07T00:45:01;14.70;99.90
14188;DHT22;7175;51.978;5.330;2023-08-07T00:47:29;14.60;99.90
14188;DHT22;7175;51.978;5.330;2023-08-07T00:49:58;14.60;99.90
14188;DHT22;7175;51.978;5.330;2023-08-07T00:52:26;14.60;99.90
14188;DHT22;7175;51.978;5.330;2023-08-07T00:54:55;14.60;99.90
14188;DHT22;7175;51.978;5.330;2023-08-07T00:57:24;14.60;99.90
14188;DHT22;7175;51.978;5.330;2023-08-07T00:59:52;14.70;99.90
14188;DHT22;7175;51.978;5.330;2023-08-07T01:02:22;14.70;99.90
14188;DHT22;7175;51.978;5.330;2023-08-07T01:04:50;14.70;99.90
14188;DHT22;7175;51.978;5.330;2023-08-07T01:07:18;14.70;99.90
14188;DHT22;7175;51.978;5.330;2023-08-07T01:09:46;14.70;99.90
14188;DHT22;7175;51.978;5.330;2023-08-07T01:12:16;14.60;99.90
14188;DHT22;7175;51.978;5.330;2023-08-07T01:14:52;14.60;99.90
14188;DHT22;7175;51.978;5.330;2023-08-07T01:17:23;14.60;99.90
14188;DHT22;7175;51.978;5.330;2023-08-07T01:19:52;14.60;99.90
14188;DHT22;7175;51.978;5.330;2023-08-07T01:22:23;14.60;99.90
14188;DHT22;7175;51.978;5.330;2023-08-07T01:24:51;14.50;99.90
14188;DHT22;7175;51.978;5.330;2023-08-07T01:27:27;14.50;99.90
14188;DHT22;7175;51.978;5.330;2023-08-07T01:30:02;14.60;99.90
14188;DHT22;7175;51.978;5.330;2023-08-07T01:32:42;14.50;99.90
14188;DHT22;7175;51.978;5.330;2023-08-07T01:35:12;14.50;99.90
14188;DHT22;7175;51.978;5.330;2023-08-07T01:37:45;14.50;99.90
14188;DHT22;7175;51.978;5.330;2023-08-07T01:40:13;14.50;99.90
14188;DHT22;7175;51.978;5.330;2023-08-07T01:42:42;14.50;99.90
14188;DHT22;7175;51.978;5.330;2023-08-07T01:45:11;14.50;99.90
14188;DHT22;7175;51.978;5.330;2023-08-07T01:47:39;14.60;99.90
14188;DHT22;7175;51.978;5.330;2023-08-07T01:50:07;14.60;99.90
14188;DHT22;7175;51.978;5.330;2023-08-07T01:52:35;14.60;99.90
14188;DHT22;7175;51.978;5.330;2023-08-07T01:55:05;14.60;99.90
14188;DHT22;7175;51.978;5.330;2023-08-07T01:57:33;14.60;99.90
14188;DHT22;7175;51.978;5.330;2023-08-07T02:00:01;14.60;99.90
14188;DHT22;7175;51.978;5.330;2023-08-07T02:02:30;14.50;99.90
14188;DHT22;7175;51.978;5.330;2023-08-07T02:04:58;14.50;99.90
14188;DHT22;7175;51.978;5.330;2023-08-07T02:07:26;14.50;99.90
14188;DHT22;7175;51.978;5.330;2023-08-07T02:09:55;14.50;99.90
14188;DHT22;7175;51.978;5.330;2023-08-07T02:12:24;14.40;99.90
14188;DHT22;7175;51.978;5.330;2023-08-07T02:14:53;14.40;99.90
14188;DHT22;7175;51.978;5.330;2023-08-07T02:17:21;14.40;99.90
14188;DHT22;7175;51.978;5.330;2023-08-07T02:19:49;14.40;99.90
14188;DHT22;7175;51.978;5.330;2023-08-07T02:22:17;14.40;99.90
14188;DHT22;7175;51.978;5.330;2023-08-07T02:24:45;14.40;99.90
14188;DHT22;7175;51.978;5.330;2023-08-07T02:27:14;14.50;99.90
14188;DHT22;7175;51.978;5.330;2023-08-07T02:29:44;14.50;99.90
14188;DHT22;7175;51.978;5.330;2023-08-07T02:32:12;14.50;99.90
14188;DHT22;7175;51.978;5.330;2023-08-07T02:34:40;14.50;99.90
14188;DHT22;7175;51.978;5.330;2023-08-07T02:37:08;14.50;99.90
14188;DHT22;7175;51.978;5.330;2023-08-07T02:39:36;14.50;99.90
14188;DHT22;7175;51.978;5.330;2023-08-07T02:42:05;14.60;99.90
14188;DHT22;7175;51.978;5.330;2023-08-07T02:44:33;14.60;99.90
14188;DHT22;7175;51.978;5.330;2023-08-07T02:47:03;14.60;99.90
14188;DHT22;7175;51.978;5.330;2023-08-07T02:49:31;14.60;99.90
14188;DHT22;7175;51.978;5.330;2023-08-07T02:51:59;14.60;99.90
14188;DHT22;7175;51.978;5.330;2023-08-07T02:54:27;14.60;99.90
14188;DHT22;7175;51.978;5.330;2023-08-07T02:56:56;14.60;99.90
14188;DHT22;7175;51.978;5.330;2023-08-07T02:59:24;14.70;99.90
14188;DHT22;7175;51.978;5.330;2023-08-07T03:01:52;14.70;99.90
14188;DHT22;7175;51.978;5.330;2023-08-07T03:04:22;14.60;99.90
14188;DHT22;7175;51.978;5.330;2023-08-07T03:06:50;14.70;99.90
14188;DHT22;7175;51.978;5.330;2023-08-07T03:09:18;14.70;99.90
14188;DHT22;7175;51.978;5.330;2023-08-07T03:11:46;14.70;99.90
14188;DHT22;7175;51.978;5.330;2023-08-07T03:14:15;14.80;99.90
14188;DHT22;7175;51.978;5.330;2023-08-07T03:16:44;14.70;99.90
14188;DHT22;7175;51.978;5.330;2023-08-07T03:19:13;14.80;99.90
14188;DHT22;7175;51.978;5.330;2023-08-07T03:21:42;14.80;99.90
14188;DHT22;7175;51.978;5.330;2023-08-07T03:24:11;14.80;99.90
14188;DHT22;7175;51.978;5.330;2023-08-07T03:26:39;14.80;99.90
14188;DHT22;7175;51.978;5.330;2023-08-07T03:29:07;14.80;99.90
14188;DHT22;7175;51.978;5.330;2023-08-07T03:31:35;14.70;99.90
14188;DHT22;7175;51.978;5.330;2023-08-07T03:34:04;14.60;99.90
14188;DHT22;7175;51.978;5.330;2023-08-07T03:36:32;14.60;99.90
14188;DHT22;7175;51.978;5.330;2023-08-07T03:39:01;14.50;99.90
14188;DHT22;7175;51.978;5.330;2023-08-07T03:41:30;14.50;99.90
14188;DHT22;7175;51.978;5.330;2023-08-07T03:43:58;14.40;99.90
14188;DHT22;7175;51.978;5.330;2023-08-07T03:46:26;14.40;99.90
14188;DHT22;7175;51.978;5.330;2023-08-07T03:48:54;14.40;99.90
14188;DHT22;7175;51.978;5.330;2023-08-07T03:51:22;14.40;99.90
14188;DHT22;7175;51.978;5.330;2023-08-07T03:53:50;14.30;99.90
14188;DHT22;7175;51.978;5.330;2023-08-07T03:56:20;14.40;99.90
14188;DHT22;7175;51.978;5.330;2023-08-07T03:58:48;14.30;99.90
14188;DHT22;7175;51.978;5.330;2023-08-07T04:01:17;14.30;99.90
14188;DHT22;7175;51.978;5.330;2023-08-07T04:03:46;14.30;99.90
14188;DHT22;7175;51.978;5.330;2023-08-07T04:06:14;14.30;99.90
14188;DHT22;7175;51.978;5.330;2023-08-07T04:08:45;14.30;99.90
14188;DHT22;7175;51.978;5.330;2023-08-07T04:11:13;14.30;99.90
14188;DHT22;7175;51.978;5.330;2023-08-07T04:13:43;14.30;99.90
14188;DHT22;7175;51.978;5.330;2023-08-07T04:16:11;14.20;99.90
14188;DHT22;7175;51.978;5.330;2023-08-07T04:18:39;14.30;99.90
14188;DHT22;7175;51.978;5.330;2023-08-07T04:21:07;14.20;99.90
14188;DHT22;7175;51.978;5.330;2023-08-07T04:23:35;14.30;99.90
14188;DHT22;7175;51.978;5.330;2023-08-07T04:26:03;14.20;99.90
14188;DHT22;7175;51.978;5.330;2023-08-07T04:28:31;14.20;99.90
14188;DHT22;7175;51.978;5.330;2023-08-07T04:31:00;14.20;99.90
14188;DHT22;7175;51.978;5.330;2023-08-07T04:33:29;14.20;99.90
14188;DHT22;7175;51.978;5.330;2023-08-07T04:35:57;14.20;99.90
14188;DHT22;7175;51.978;5.330;2023-08-07T04:38:25;14.30;99.90
14188;DHT22;7175;51.978;5.330;2023-08-07T04:40:53;14.30;99.90
14188;DHT22;7175;51.978;5.330;2023-08-07T04:43:21;14.30;99.90
14188;DHT22;7175;51.978;5.330;2023-08-07T04:45:49;14.30;99.90
14188;DHT22;7175;51.978;5.330;2023-08-07T04:48:19;14.30;99.90
14188;DHT22;7175;51.978;5.330;2023-08-07T04:50:47;14.40;99.90
14188;DHT22;7175;51.978;5.330;2023-08-07T04:53:16;14.40;99.90
14188;DHT22;7175;51.978;5.330;2023-08-07T04:55:44;14.40;99.90
14188;DHT22;7175;51.978;5.330;2023-08-07T04:58:13;14.40;99.90
14188;DHT22;7175;51.978;5.330;2023-08-07T05:00:41;14.40;99.90
14188;DHT22;7175;51.978;5.330;2023-08-07T05:03:09;14.50;99.90
14188;DHT22;7175;51.978;5.330;2023-08-07T05:05:38;14.50;99.90
14188;DHT22;7175;51.978;5.330;2023-08-07T05:08:07;14.50;99.90
14188;DHT22;7175;51.978;5.330;2023-08-07T05:10:35;14.50;99.90
14188;DHT22;7175;51.978;5.330;2023-08-07T05:13:03;14.50;99.90
14188;DHT22;7175;51.978;5.330;2023-08-07T05:15:31;14.50;99.90
14188;DHT22;7175;51.978;5.330;2023-08-07T05:17:59;14.60;99.90
14188;DHT22;7175;51.978;5.330;2023-08-07T05:20:27;14.60;99.90
14188;DHT22;7175;51.978;5.330;2023-08-07T05:22:56;14.60;99.90
14188;DHT22;7175;51.978;5.330;2023-08-07T05:25:25;14.60;99.90
14188;DHT22;7175;51.978;5.330;2023-08-07T05:27:53;14.60;99.90
14188;DHT22;7175;51.978;5.330;2023-08-07T05:30:21;14.60;99.90
14188;DHT22;7175;51.978;5.330;2023-08-07T05:32:50;14.70;99.90
14188;DHT22;7175;51.978;5.330;2023-08-07T05:35:19;14.70;99.90
14188;DHT22;7175;51.978;5.330;2023-08-07T05:37:47;14.70;99.90
14188;DHT22;7175;51.978;5.330;2023-08-07T05:40:16;14.70;99.90
14188;DHT22;7175;51.978;5.330;2023-08-07T05:42:44;14.70;99.90
14188;DHT22;7175;51.978;5.330;2023-08-07T05:45:12;14.70;99.90
14188;DHT22;7175;51.978;5.330;2023-08-07T05:47:40;14.80;99.90
14188;DHT22;7175;51.978;5.330;2023-08-07T05:50:09;14.80;99.90
14188;DHT22;7175;51.978;5.330;2023-08-07T05:52:37;14.90;99.90
14188;DHT22;7175;51.978;5.330;2023-08-07T05:55:06;14.90;99.90
14188;DHT22;7175;51.978;5.330;2023-08-07T05:57:36;14.90;99.90
14188;DHT22;7175;51.978;5.330;2023-08-07T06:00:05;14.90;99.90
14188;DHT22;7175;51.978;5.330;2023-08-07T06:02:34;14.90;99.90
14188;DHT22;7175;51.978;5.330;2023-08-07T06:05:02;14.90;99.90
14188;DHT22;7175;51.978;5.330;2023-08-07T06:07:31;14.90;99.90
14188;DHT22;7175;51.978;5.330;2023-08-07T06:09:59;14.90;99.90
14188;DHT22;7175;51.978;5.330;2023-08-07T06:12:27;15.00;99.90
14188;DHT22;7175;51.978;5.330;2023-08-07T06:14:58;15.00;99.90
14188;DHT22;7175;51.978;5.330;2023-08-07T06:17:27;15.00;99.90
14188;DHT22;7175;51.978;5.330;2023-08-07T06:19:55;15.00;99.90
14188;DHT22;7175;51.978;5.330;2023-08-07T06:22:23;15.00;99.90
14188;DHT22;7175;51.978;5.330;2023-08-07T06:24:51;15.00;99.90
14188;DHT22;7175;51.978;5.330;2023-08-07T06:27:21;15.10;99.90
14188;DHT22;7175;51.978;5.330;2023-08-07T06:29:49;15.20;99.90
14188;DHT22;7175;51.978;5.330;2023-08-07T06:32:19;15.10;99.90
14188;DHT22;7175;51.978;5.330;2023-08-07T06:34:47;15.20;99.90
14188;DHT22;7175;51.978;5.330;2023-08-07T06:37:15;15.30;99.90
14188;DHT22;7175;51.978;5.330;2023-08-07T06:39:43;15.50;99.90
14188;DHT22;7175;51.978;5.330;2023-08-07T06:42:15;15.60;99.90
14188;DHT22;7175;51.978;5.330;2023-08-07T06:44:43;15.70;99.90
14188;DHT22;7175;51.978;5.330;2023-08-07T06:47:11;15.70;99.90
14188;DHT22;7175;51.978;5.330;2023-08-07T06:49:41;15.70;99.90
14188;DHT22;7175;51.978;5.330;2023-08-07T06:52:09;15.70;99.90
14188;DHT22;7175;51.978;5.330;2023-08-07T06:54:37;15.60;99.90
14188;DHT22;7175;51.978;5.330;2023-08-07T06:57:05;15.60;99.90
14188;DHT22;7175;51.978;5.330;2023-08-07T06:59:33;15.50;99.90
14188;DHT22;7175;51.978;5.330;2023-08-07T07:02:01;15.80;99.90
14188;DHT22;7175;51.978;5.330;2023-08-07T07:04:29;15.90;99.90
14188;DHT22;7175;51.978;5.330;2023-08-07T07:06:59;15.80;99.90
14188;DHT22;7175;51.978;5.330;2023-08-07T07:09:27;16.00;99.90
14188;DHT22;7175;51.978;5.330;2023-08-07T07:11:55;16.10;99.90
14188;DHT22;7175;51.978;5.330;2023-08-07T07:14:24;16.20;99.90
14188;DHT22;7175;51.978;5.330;2023-08-07T07:16:52;16.40;99.90
14188;DHT22;7175;51.978;5.330;2023-08-07T07:19:20;16.50;99.90
14188;DHT22;7175;51.978;5.330;2023-08-07T07:21:48;16.40;99.90
14188;DHT22;7175;51.978;5.330;2023-08-07T07:24:18;16.40;99.90
14188;DHT22;7175;51.978;5.330;2023-08-07T07:26:46;16.40;99.90
14188;DHT22;7175;51.978;5.330;2023-08-07T07:29:16;16.30;99.90
14188;DHT22;7175;51.978;5.330;2023-08-07T07:31:44;16.20;99.90
14188;DHT22;7175;51.978;5.330;2023-08-07T07:34:13;16.10;99.90
14188;DHT22;7175;51.978;5.330;2023-08-07T07:36:41;16.00;99.90
14188;DHT22;7175;51.978;5.330;2023-08-07T07:39:09;16.00;99.90
14188;DHT22;7175;51.978;5.330;2023-08-07T07:41:39;15.90;99.90
14188;DHT22;7175;51.978;5.330;2023-08-07T07:44:07;15.90;99.90
14188;DHT22;7175;51.978;5.330;2023-08-07T07:46:35;15.80;99.90
14188;DHT22;7175;51.978;5.330;2023-08-07T07:49:03;15.80;99.90
14188;DHT22;7175;51.978;5.330;2023-08-07T07:51:32;15.90;99.90
14188;DHT22;7175;51.978;5.330;2023-08-07T07:54:02;16.30;99.90
14188;DHT22;7175;51.978;5.330;2023-08-07T07:56:42;16.40;99.90
14188;DHT22;7175;51.978;5.330;2023-08-07T07:59:11;16.60;99.90
14188;DHT22;7175;51.978;5.330;2023-08-07T08:01:40;16.80;99.90
14188;DHT22;7175;51.978;5.330;2023-08-07T08:04:08;16.80;99.90
14188;DHT22;7175;51.978;5.330;2023-08-07T08:06:37;16.80;99.90
14188;DHT22;7175;51.978;5.330;2023-08-07T08:09:05;16.90;99.90
14188;DHT22;7175;51.978;5.330;2023-08-07T08:11:37;17.10;99.90
14188;DHT22;7175;51.978;5.330;2023-08-07T08:14:06;17.50;99.90
14188;DHT22;7175;51.978;5.330;2023-08-07T08:16:34;17.90;99.90
14188;DHT22;7175;51.978;5.330;2023-08-07T08:19:03;18.20;99.90
14188;DHT22;7175;51.978;5.330;2023-08-07T08:21:31;18.10;99.90
14188;DHT22;7175;51.978;5.330;2023-08-07T08:23:59;18.00;99.90
14188;DHT22;7175;51.978;5.330;2023-08-07T08:26:27;17.90;99.90
14188;DHT22;7175;51.978;5.330;2023-08-07T08:28:56;18.10;99.90
14188;DHT22;7175;51.978;5.330;2023-08-07T08:31:25;18.30;99.90
14188;DHT22;7175;51.978;5.330;2023-08-07T08:33:53;18.50;99.90
14188;DHT22;7175;51.978;5.330;2023-08-07T08:36:21;18.40;99.90
14188;DHT22;7175;51.978;5.330;2023-08-07T08:38:49;18.40;99.90
14188;DHT22;7175;51.978;5.330;2023-08-07T08:41:19;18.30;99.90
14188;DHT22;7175;51.978;5.330;2023-08-07T08:43:49;18.60;99.90
14188;DHT22;7175;51.978;5.330;2023-08-07T08:46:20;18.50;99.90
14188;DHT22;7175;51.978;5.330;2023-08-07T08:48:56;18.20;99.90
14188;DHT22;7175;51.978;5.330;2023-08-07T08:51:25;18.30;99.90
14188;DHT22;7175;51.978;5.330;2023-08-07T08:53:53;18.40;99.90
14188;DHT22;7175;51.978;5.330;2023-08-07T08:56:23;18.60;99.90
14188;DHT22;7175;51.978;5.330;2023-08-07T08:58:52;19.00;99.90
14188;DHT22;7175;51.978;5.330;2023-08-07T09:01:20;18.90;99.90
14188;DHT22;7175;51.978;5.330;2023-08-07T09:03:55;18.80;99.90
14188;DHT22;7175;51.978;5.330;2023-08-07T09:06:24;18.50;99.90
14188;DHT22;7175;51.978;5.330;2023-08-07T09:08:58;18.30;99.90
14188;DHT22;7175;51.978;5.330;2023-08-07T09:11:30;18.10;99.90
14188;DHT22;7175;51.978;5.330;2023-08-07T09:14:07;17.90;99.90
14188;DHT22;7175;51.978;5.330;2023-08-07T09:16:37;17.80;99.90
14188;DHT22;7175;51.978;5.330;2023-08-07T09:19:28;17.90;99.90
14188;DHT22;7175;51.978;5.330;2023-08-07T09:22:10;17.90;99.90
14188;DHT22;7175;51.978;5.330;2023-08-07T09:24:44;18.00;99.90
14188;DHT22;7175;51.978;5.330;2023-08-07T09:27:17;18.10;99.90
14188;DHT22;7175;51.978;5.330;2023-08-07T09:29:46;18.30;99.90
14188;DHT22;7175;51.978;5.330;2023-08-07T09:32:21;18.30;99.90
14188;DHT22;7175;51.978;5.330;2023-08-07T09:35:02;18.30;99.90
14188;DHT22;7175;51.978;5.330;2023-08-07T09:37:37;17.90;99.90
14188;DHT22;7175;51.978;5.330;2023-08-07T09:40:12;17.80;99.90
14188;DHT22;7175;51.978;5.330;2023-08-07T09:42:57;17.90;99.90
14188;DHT22;7175;51.978;5.330;2023-08-07T09:45:33;17.90;99.90
14188;DHT22;7175;51.978;5.330;2023-08-07T09:48:10;17.80;99.90
14188;DHT22;7175;51.978;5.330;2023-08-07T09:50:51;17.90;99.90
14188;DHT22;7175;51.978;5.330;2023-08-07T09:53:29;18.20;99.90
14188;DHT22;7175;51.978;5.330;2023-08-07T09:56:24;18.50;99.90
14188;DHT22;7175;51.978;5.330;2023-08-07T09:59:04;18.70;99.90
14188;DHT22;7175;51.978;5.330;2023-08-07T10:01:38;19.30;99.90
14188;DHT22;7175;51.978;5.330;2023-08-07T10:04:21;19.60;99.90
14188;DHT22;7175;51.978;5.330;2023-08-07T10:07:02;19.40;99.90
14188;DHT22;7175;51.978;5.330;2023-08-07T10:09:51;19.50;99.90
14188;DHT22;7175;51.978;5.330;2023-08-07T10:12:32;19.50;99.90
14188;DHT22;7175;51.978;5.330;2023-08-07T10:15:27;19.40;99.90
14188;DHT22;7175;51.978;5.330;2023-08-07T10:18:03;19.30;99.90
14188;DHT22;7175;51.978;5.330;2023-08-07T10:20:31;19.10;99.90
14188;DHT22;7175;51.978;5.330;2023-08-07T10:23:11;18.80;99.90
14188;DHT22;7175;51.978;5.330;2023-08-07T10:25:41;18.50;99.90
14188;DHT22;7175;51.978;5.330;2023-08-07T10:28:14;18.20;99.90
14188;DHT22;7175;51.978;5.330;2023-08-07T10:30:44;18.00;99.90
14188;DHT22;7175;51.978;5.330;2023-08-07T10:33:13;17.90;99.90
14188;DHT22;7175;51.978;5.330;2023-08-07T10:35:45;18.00;99.90
14188;DHT22;7175;51.978;5.330;2023-08-07T10:38:19;18.20;99.90
14188;DHT22;7175;51.978;5.330;2023-08-07T10:40:59;18.40;99.90
14188;DHT22;7175;51.978;5.330;2023-08-07T10:43:27;18.70;99.90
14188;DHT22;7175;51.978;5.330;2023-08-07T10:46:03;19.00;99.90
14188;DHT22;7175;51.978;5.330;2023-08-07T10:48:38;19.20;99.90
14188;DHT22;7175;51.978;5.330;2023-08-07T10:51:06;19.30;99.90
14188;DHT22;7175;51.978;5.330;2023-08-07T10:53:37;19.50;99.90
14188;DHT22;7175;51.978;5.330;2023-08-07T10:56:09;19.70;99.90
14188;DHT22;7175;51.978;5.330;2023-08-07T10:58:38;19.80;99.90
14188;DHT22;7175;51.978;5.330;2023-08-07T11:01:17;19.70;99.90
14188;DHT22;7175;51.978;5.330;2023-08-07T11:03:51;19.50;99.90
14188;DHT22;7175;51.978;5.330;2023-08-07T11:06:22;19.50;99.90
14188;DHT22;7175;51.978;5.330;2023-08-07T11:08:53;19.50;99.90
14188;DHT22;7175;51.978;5.330;2023-08-07T11:11:21;19.40;99.90
14188;DHT22;7175;51.978;5.330;2023-08-07T11:13:50;19.50;99.90
14188;DHT22;7175;51.978;5.330;2023-08-07T11:16:18;19.50;99.90
14188;DHT22;7175;51.978;5.330;2023-08-07T11:18:48;19.70;99.90
14188;DHT22;7175;51.978;5.330;2023-08-07T11:21:16;20.00;99.90
14188;DHT22;7175;51.978;5.330;2023-08-07T11:23:45;20.00;99.90
14188;DHT22;7175;51.978;5.330;2023-08-07T11:26:14;20.20;99.90
14188;DHT22;7175;51.978;5.330;2023-08-07T11:28:44;20.70;99.90
14188;DHT22;7175;51.978;5.330;2023-08-07T11:31:12;20.40;99.90
14188;DHT22;7175;51.978;5.330;2023-08-07T11:33:40;20.10;99.90
14188;DHT22;7175;51.978;5.330;2023-08-07T11:36:12;19.70;99.90
14188;DHT22;7175;51.978;5.330;2023-08-07T11:38:42;19.90;99.90
14188;DHT22;7175;51.978;5.330;2023-08-07T11:41:14;20.10;99.90
14188;DHT22;7175;51.978;5.330;2023-08-07T11:43:42;20.20;99.90
14188;DHT22;7175;51.978;5.330;2023-08-07T11:46:12;20.60;99.90
14188;DHT22;7175;51.978;5.330;2023-08-07T11:48:41;20.40;99.90
14188;DHT22;7175;51.978;5.330;2023-08-07T11:51:10;20.40;99.90
14188;DHT22;7175;51.978;5.330;2023-08-07T11:53:40;20.30;99.90
14188;DHT22;7175;51.978;5.330;2023-08-07T11:56:10;20.30;99.90
14188;DHT22;7175;51.978;5.330;2023-08-07T11:58:45;20.20;99.90
14188;DHT22;7175;51.978;5.330;2023-08-07T12:01:14;20.30;99.90
14188;DHT22;7175;51.978;5.330;2023-08-07T12:03:52;20.00;99.90
14188;DHT22;7175;51.978;5.330;2023-08-07T12:06:22;19.70;99.90
14188;DHT22;7175;51.978;5.330;2023-08-07T12:08:55;20.00;99.90
14188;DHT22;7175;51.978;5.330;2023-08-07T12:11:24;20.70;99.90
14188;DHT22;7175;51.978;5.330;2023-08-07T12:13:54;21.50;99.90
14188;DHT22;7175;51.978;5.330;2023-08-07T12:16:22;20.90;99.90
14188;DHT22;7175;51.978;5.330;2023-08-07T12:18:51;21.00;99.90
14188;DHT22;7175;51.978;5.330;2023-08-07T12:21:21;21.50;99.90
14188;DHT22;7175;51.978;5.330;2023-08-07T12:23:55;22.00;99.90
14188;DHT22;7175;51.978;5.330;2023-08-07T12:26:23;22.40;99.90
14188;DHT22;7175;51.978;5.330;2023-08-07T12:28:53;22.60;99.90
14188;DHT22;7175;51.978;5.330;2023-08-07T12:31:21;22.50;99.90
14188;DHT22;7175;51.978;5.330;2023-08-07T12:33:49;22.60;99.90
14188;DHT22;7175;51.978;5.330;2023-08-07T12:36:18;22.60;99.90
14188;DHT22;7175;51.978;5.330;2023-08-07T12:38:46;23.00;99.90
14188;DHT22;7175;51.978;5.330;2023-08-07T12:41:14;23.60;99.90
14188;DHT22;7175;51.978;5.330;2023-08-07T12:43:45;23.30;99.90
14188;DHT22;7175;51.978;5.330;2023-08-07T12:46:14;23.00;99.90
14188;DHT22;7175;51.978;5.330;2023-08-07T12:48:45;23.40;99.90
14188;DHT22;7175;51.978;5.330;2023-08-07T12:51:13;23.50;99.90
14188;DHT22;7175;51.978;5.330;2023-08-07T12:53:41;23.40;99.90
14188;DHT22;7175;51.978;5.330;2023-08-07T12:56:09;22.50;99.90
14188;DHT22;7175;51.978;5.330;2023-08-07T12:58:37;22.70;99.90
14188;DHT22;7175;51.978;5.330;2023-08-07T13:01:08;23.30;99.90
14188;DHT22;7175;51.978;5.330;2023-08-07T13:03:39;22.90;99.90
14188;DHT22;7175;51.978;5.330;2023-08-07T13:06:07;23.00;99.90
14188;DHT22;7175;51.978;5.330;2023-08-07T13:08:38;22.60;99.90
14188;DHT22;7175;51.978;5.330;2023-08-07T13:11:06;22.30;99.90
14188;DHT22;7175;51.978;5.330;2023-08-07T13:13:34;23.00;99.90
14188;DHT22;7175;51.978;5.330;2023-08-07T13:16:02;23.20;99.90
14188;DHT22;7175;51.978;5.330;2023-08-07T13:18:30;23.50;99.90
14188;DHT22;7175;51.978;5.330;2023-08-07T13:20:59;23.90;99.90
14188;DHT22;7175;51.978;5.330;2023-08-07T13:23:27;23.90;99.90
14188;DHT22;7175;51.978;5.330;2023-08-07T13:25:55;23.90;99.90
14188;DHT22;7175;51.978;5.330;2023-08-07T13:28:23;23.30;99.90
14188;DHT22;7175;51.978;5.330;2023-08-07T13:30:51;22.40;99.90
14188;DHT22;7175;51.978;5.330;2023-08-07T13:33:21;22.20;99.90
14188;DHT22;7175;51.978;5.330;2023-08-07T13:35:49;22.30;99.90
14188;DHT22;7175;51.978;5.330;2023-08-07T13:38:18;22.80;99.90
14188;DHT22;7175;51.978;5.330;2023-08-07T13:40:46;23.40;99.90
14188;DHT22;7175;51.978;5.330;2023-08-07T13:43:14;23.30;99.90
14188;DHT22;7175;51.978;5.330;2023-08-07T13:45:42;23.00;99.90
14188;DHT22;7175;51.978;5.330;2023-08-07T13:48:10;23.80;99.90
14188;DHT22;7175;51.978;5.330;2023-08-07T13:50:38;24.20;99.90
14188;DHT22;7175;51.978;5.330;2023-08-07T13:53:07;24.10;99.90
14188;DHT22;7175;51.978;5.330;2023-08-07T13:55:43;23.50;99.90
14188;DHT22;7175;51.978;5.330;2023-08-07T13:58:12;22.70;99.90
14188;DHT22;7175;51.978;5.330;2023-08-07T14:00:42;23.00;99.90
14188;DHT22;7175;51.978;5.330;2023-08-07T14:03:11;23.70;99.90
14188;DHT22;7175;51.978;5.330;2023-08-07T14:05:40;23.50;99.90
14188;DHT22;7175;51.978;5.330;2023-08-07T14:08:08;23.30;99.90
14188;DHT22;7175;51.978;5.330;2023-08-07T14:10:37;23.30;99.90
14188;DHT22;7175;51.978;5.330;2023-08-07T14:13:09;23.70;99.90
14188;DHT22;7175;51.978;5.330;2023-08-07T14:15:38;24.20;99.90
14188;DHT22;7175;51.978;5.330;2023-08-07T14:18:06;24.00;99.90
14188;DHT22;7175;51.978;5.330;2023-08-07T14:20:34;22.50;99.90
14188;DHT22;7175;51.978;5.330;2023-08-07T14:23:22;22.00;99.90
14188;DHT22;7175;51.978;5.330;2023-08-07T14:25:50;21.50;99.90
14188;DHT22;7175;51.978;5.330;2023-08-07T14:28:21;21.50;99.90
14188;DHT22;7175;51.978;5.330;2023-08-07T14:30:49;21.20;99.90
14188;DHT22;7175;51.978;5.330;2023-08-07T14:33:17;20.90;99.90
14188;DHT22;7175;51.978;5.330;2023-08-07T14:35:45;20.80;99.90
14188;DHT22;7175;51.978;5.330;2023-08-07T14:38:13;21.70;99.90
14188;DHT22;7175;51.978;5.330;2023-08-07T14:40:41;22.30;99.90
14188;DHT22;7175;51.978;5.330;2023-08-07T14:43:10;22.30;99.90
14188;DHT22;7175;51.978;5.330;2023-08-07T14:45:40;22.20;99.90
14188;DHT22;7175;51.978;5.330;2023-08-07T14:48:08;21.70;99.90
14188;DHT22;7175;51.978;5.330;2023-08-07T14:50:36;21.10;99.90
14188;DHT22;7175;51.978;5.330;2023-08-07T14:53:05;20.90;99.90
14188;DHT22;7175;51.978;5.330;2023-08-07T14:55:33;20.70;99.90
14188;DHT22;7175;51.978;5.330;2023-08-07T14:58:01;20.40;99.90
14188;DHT22;7175;51.978;5.330;2023-08-07T15:00:29;20.40;99.90
14188;DHT22;7175;51.978;5.330;2023-08-07T15:02:58;20.10;99.90
14188;DHT22;7175;51.978;5.330;2023-08-07T15:05:26;20.00;99.90
14188;DHT22;7175;51.978;5.330;2023-08-07T15:07:54;19.80;99.90
14188;DHT22;7175;51.978;5.330;2023-08-07T15:10:22;19.70;99.90
14188;DHT22;7175;51.978;5.330;2023-08-07T15:12:50;19.60;99.90
14188;DHT22;7175;51.978;5.330;2023-08-07T15:15:18;19.80;99.90
14188;DHT22;7175;51.978;5.330;2023-08-07T15:17:47;19.80;99.90
14188;DHT22;7175;51.978;5.330;2023-08-07T15:20:17;19.70;99.90
14188;DHT22;7175;51.978;5.330;2023-08-07T15:22:46;19.60;99.90
14188;DHT22;7175;51.978;5.330;2023-08-07T15:25:16;19.40;99.90
14188;DHT22;7175;51.978;5.330;2023-08-07T15:27:44;19.10;99.90
14188;DHT22;7175;51.978;5.330;2023-08-07T15:30:12;19.10;99.90
14188;DHT22;7175;51.978;5.330;2023-08-07T15:32:40;18.70;99.90
14188;DHT22;7175;51.978;5.330;2023-08-07T15:35:09;18.20;99.90
14188;DHT22;7175;51.978;5.330;2023-08-07T15:37:38;18.10;99.90
14188;DHT22;7175;51.978;5.330;2023-08-07T15:40:08;17.80;99.90
14188;DHT22;7175;51.978;5.330;2023-08-07T15:42:36;17.50;99.90
14188;DHT22;7175;51.978;5.330;2023-08-07T15:45:05;17.40;99.90
14188;DHT22;7175;51.978;5.330;2023-08-07T15:47:34;17.30;99.90
14188;DHT22;7175;51.978;5.330;2023-08-07T15:50:02;17.20;99.90
14188;DHT22;7175;51.978;5.330;2023-08-07T15:52:31;17.10;99.90
14188;DHT22;7175;51.978;5.330;2023-08-07T15:55:00;17.20;99.90
14188;DHT22;7175;51.978;5.330;2023-08-07T15:57:28;17.50;99.90
14188;DHT22;7175;51.978;5.330;2023-08-07T15:59:57;17.80;99.90